createdAt,value
2018-01-15T00:00:24.839Z,-2.10
2018-01-15T00:02:53.913Z,-2.10
2018-01-15T00:05:22.212Z,-2.10
2018-01-15T00:07:50.515Z,-2.10
2018-01-15T00:10:18.870Z,-2.10
2018-01-15T00:12:47.176Z,-2.10
2018-01-15T00:15:15.474Z,-2.10
2018-01-15T00:17:43.771Z,-2.10
2018-01-15T00:20:12.078Z,-2.20
2018-01-15T00:22:41.275Z,-2.20
2018-01-15T00:25:09.567Z,-2.20
2018-01-15T00:27:37.874Z,-2.30
2018-01-15T00:30:06.954Z,-2.40
2018-01-15T00:32:35.246Z,-2.30
2018-01-15T00:35:03.582Z,-2.30
2018-01-15T00:37:31.870Z,-2.30
2018-01-15T00:40:00.175Z,-2.30
2018-01-15T00:42:28.468Z,-2.40
2018-01-15T00:44:56.775Z,-2.40
2018-01-15T00:47:25.106Z,-2.50
2018-01-15T00:49:54.180Z,-2.50
2018-01-15T00:52:22.474Z,-2.50
2018-01-15T00:54:50.800Z,-2.50
2018-01-15T00:57:19.869Z,-2.50
2018-01-15T00:59:48.203Z,-2.50
2018-01-15T01:02:17.319Z,-2.50
2018-01-15T01:04:46.390Z,-2.50
2018-01-15T01:07:14.704Z,-2.50
2018-01-15T01:09:43.006Z,-2.40
2018-01-15T01:12:12.082Z,-2.40
2018-01-15T01:14:40.419Z,-2.40
2018-01-15T01:17:08.718Z,-2.40
2018-01-15T01:19:37.009Z,-2.40
2018-01-15T01:22:05.308Z,-2.40
2018-01-15T01:24:33.608Z,-2.40
2018-01-15T01:27:01.927Z,-2.40
2018-01-15T01:29:30.303Z,-2.40
2018-01-15T01:31:58.599Z,-2.40
2018-01-15T01:34:26.890Z,-2.40
2018-01-15T01:36:55.215Z,-2.40
2018-01-15T01:39:24.298Z,-2.30
2018-01-15T01:41:52.597Z,-2.40
2018-01-15T01:44:20.889Z,-2.30
2018-01-15T01:46:49.191Z,-2.40
2018-01-15T01:49:18.245Z,-2.30
2018-01-15T01:51:46.606Z,-2.40
2018-01-15T01:54:14.905Z,-2.30
2018-01-15T01:56:43.231Z,-2.30
2018-01-15T01:59:11.546Z,-2.40
2018-01-15T02:01:39.840Z,-2.40
2018-01-15T02:04:08.933Z,-2.40
2018-01-15T02:06:37.239Z,-2.40
2018-01-15T02:09:05.528Z,-2.40
2018-01-15T02:11:34.591Z,-2.60
2018-01-15T02:14:02.882Z,-2.60
2018-01-15T02:16:31.303Z,-2.60
2018-01-15T02:18:59.598Z,-2.50
2018-01-15T02:21:27.895Z,-2.60
2018-01-15T02:23:56.204Z,-2.70
2018-01-15T02:26:25.279Z,-2.70
2018-01-15T02:28:53.618Z,-2.80
2018-01-15T02:31:21.958Z,-2.70
2018-01-15T02:33:50.271Z,-2.60
2018-01-15T02:36:18.571Z,-2.60
2018-01-15T02:38:47.645Z,-2.60
2018-01-15T02:41:15.953Z,-2.60
2018-01-15T02:43:44.284Z,-2.70
2018-01-15T02:46:12.605Z,-2.70
2018-01-15T02:48:40.914Z,-2.70
2018-01-15T02:51:09.202Z,-2.50
2018-01-15T02:53:37.499Z,-2.40
2018-01-15T02:56:06.596Z,-2.30
2018-01-15T02:58:34.899Z,-2.30
2018-01-15T03:01:03.206Z,-2.20
2018-01-15T03:03:32.274Z,-2.20
2018-01-15T03:06:00.574Z,-2.20
2018-01-15T03:08:28.902Z,-2.20
2018-01-15T03:10:57.994Z,-2.30
2018-01-15T03:13:26.316Z,-2.30
2018-01-15T03:15:54.622Z,-2.20
2018-01-15T03:18:22.930Z,-2.30
2018-01-15T03:20:51.254Z,-2.30
2018-01-15T03:23:20.318Z,-2.40
2018-01-15T03:25:48.647Z,-2.40
2018-01-15T03:28:17.000Z,-2.30
2018-01-15T03:30:45.411Z,-2.30
2018-01-15T03:33:13.775Z,-2.20
2018-01-15T03:35:42.099Z,-2.30
2018-01-15T03:38:10.401Z,-2.30
2018-01-15T03:40:38.703Z,-2.30
2018-01-15T03:43:07.766Z,-2.30
2018-01-15T03:45:36.082Z,-2.30
2018-01-15T03:48:04.383Z,-2.20
2018-01-15T03:50:32.711Z,-2.10
2018-01-15T03:53:01.020Z,-2.10
2018-01-15T03:55:29.354Z,-2.10
2018-01-15T03:57:57.653Z,-2.20
2018-01-15T04:00:33.577Z,-2.20
2018-01-15T04:03:01.882Z,-2.20
2018-01-15T04:05:30.213Z,-2.10
2018-01-15T04:07:59.272Z,-2.30
2018-01-15T04:10:27.615Z,-2.30
2018-01-15T04:12:56.147Z,-2.30
2018-01-15T04:15:24.441Z,-2.30
2018-01-15T04:17:52.763Z,-2.30
2018-01-15T04:20:21.079Z,-2.40
2018-01-15T04:22:50.147Z,-2.30
2018-01-15T04:25:18.450Z,-2.30
2018-01-15T04:27:46.769Z,-2.20
2018-01-15T04:30:15.377Z,-2.30
2018-01-15T04:32:43.678Z,-2.40
2018-01-15T04:35:11.983Z,-2.50
2018-01-15T04:37:40.282Z,-2.50
2018-01-15T04:40:08.582Z,-2.50
2018-01-15T04:42:36.915Z,-2.50
2018-01-15T04:45:05.995Z,-2.50
2018-01-15T04:47:34.290Z,-2.50
2018-01-15T04:50:02.591Z,-2.50
2018-01-15T04:52:31.667Z,-2.50
2018-01-15T04:55:00.092Z,-2.50
2018-01-15T04:57:29.168Z,-2.50
2018-01-15T04:59:57.470Z,-2.50
2018-01-15T05:02:25.770Z,-2.50
2018-01-15T05:04:54.085Z,-2.40
2018-01-15T05:07:23.179Z,-2.40
2018-01-15T05:09:52.270Z,-2.50
2018-01-15T05:12:20.573Z,-2.50
2018-01-15T05:14:48.924Z,-2.40
2018-01-15T05:17:17.242Z,-2.50
2018-01-15T05:19:45.551Z,-2.40
2018-01-15T05:22:14.759Z,-2.50
2018-01-15T05:24:43.833Z,-2.40
2018-01-15T05:27:12.154Z,-2.40
2018-01-15T05:29:41.241Z,-2.20
2018-01-15T05:32:09.539Z,-2.20
2018-01-15T05:34:37.850Z,-2.20
2018-01-15T05:37:06.915Z,-2.30
2018-01-15T05:39:35.214Z,-2.40
2018-01-15T05:42:03.524Z,-2.30
2018-01-15T05:44:31.828Z,-2.40
2018-01-15T05:47:00.894Z,-2.30
2018-01-15T05:49:29.206Z,-2.40
2018-01-15T05:51:57.506Z,-2.20
2018-01-15T05:54:25.814Z,-2.10
2018-01-15T05:56:54.893Z,-1.90
2018-01-15T05:59:23.198Z,-1.90
2018-01-15T06:01:51.499Z,-1.80
2018-01-15T06:04:20.557Z,-1.70
2018-01-15T06:06:48.859Z,-1.70
2018-01-15T06:09:17.170Z,-1.60
2018-01-15T06:11:48.440Z,-1.60
2018-01-15T06:14:16.786Z,-1.60
2018-01-15T06:16:45.107Z,-1.70
2018-01-15T06:19:13.422Z,-1.60
2018-01-15T06:21:42.513Z,-1.50
2018-01-15T06:24:10.819Z,-1.60
2018-01-15T06:26:39.122Z,-1.60
2018-01-15T06:29:07.454Z,-1.60
2018-01-15T06:31:35.789Z,-1.50
2018-01-15T06:34:04.851Z,-1.50
2018-01-15T06:36:33.147Z,-1.50
2018-01-15T06:39:01.455Z,-1.50
2018-01-15T06:41:29.762Z,-1.40
2018-01-15T06:43:58.871Z,-1.20
2018-01-15T06:46:27.171Z,-1.30
2018-01-15T06:48:56.262Z,-1.20
2018-01-15T06:51:24.563Z,-1.20
2018-01-15T06:53:53.629Z,-1.00
2018-01-15T06:56:22.063Z,-1.00
2018-01-15T06:58:50.350Z,-1.00
2018-01-15T07:01:19.440Z,-1.00
2018-01-15T07:03:47.793Z,-1.00
2018-01-15T07:06:16.115Z,-1.00
2018-01-15T07:08:44.476Z,-0.90
2018-01-15T07:11:12.792Z,-0.90
2018-01-15T07:13:41.094Z,-0.90
2018-01-15T07:16:09.403Z,-0.80
2018-01-15T07:18:38.464Z,-0.80
2018-01-15T07:21:06.810Z,-0.80
2018-01-15T07:23:35.874Z,-0.80
2018-01-15T07:26:04.214Z,-0.80
2018-01-15T07:28:33.298Z,-0.70
2018-01-15T07:31:01.586Z,-0.70
2018-01-15T07:33:30.804Z,-0.70
2018-01-15T07:35:59.886Z,-0.60
2018-01-15T07:38:28.211Z,-0.60
2018-01-15T07:40:57.403Z,-0.50
2018-01-15T07:43:25.707Z,-0.50
2018-01-15T07:45:54.774Z,-0.50
2018-01-15T07:48:23.114Z,-0.50
2018-01-15T07:50:52.177Z,-0.50
2018-01-15T07:53:20.509Z,-0.50
2018-01-15T07:55:48.809Z,-0.50
2018-01-15T07:58:17.870Z,-0.40
2018-01-15T08:00:46.176Z,-0.50
2018-01-15T08:03:14.489Z,-0.40
2018-01-15T08:05:42.867Z,-0.40
2018-01-15T08:08:11.201Z,-0.40
2018-01-15T08:10:39.907Z,-0.40
2018-01-15T08:13:08.214Z,-0.40
2018-01-15T08:15:36.515Z,-0.30
2018-01-15T08:18:04.846Z,-0.30
2018-01-15T08:20:33.918Z,-0.10
2018-01-15T08:23:02.224Z,-0.10
2018-01-15T08:25:30.515Z,0.00
2018-01-15T08:27:58.831Z,0.10
2018-01-15T08:30:27.935Z,0.20
2018-01-15T08:32:57.012Z,0.20
2018-01-15T08:35:25.311Z,0.20
2018-01-15T08:37:53.632Z,0.30
2018-01-15T08:40:22.711Z,0.30
2018-01-15T08:42:51.203Z,0.30
2018-01-15T08:45:19.553Z,0.30
2018-01-15T08:47:47.850Z,0.40
2018-01-15T08:50:16.186Z,0.40
2018-01-15T08:52:45.272Z,0.60
2018-01-15T08:55:13.580Z,0.60
2018-01-15T08:57:41.916Z,0.70
2018-01-15T09:00:10.219Z,0.70
2018-01-15T09:02:38.524Z,0.70
2018-01-15T09:05:06.851Z,0.70
2018-01-15T09:07:35.906Z,0.70
2018-01-15T09:10:04.230Z,0.70
2018-01-15T09:12:32.521Z,0.80
2018-01-15T09:15:00.846Z,0.80
2018-01-15T09:17:29.888Z,1.00
2018-01-15T09:19:58.183Z,1.00
2018-01-15T09:22:26.483Z,1.10
2018-01-15T09:24:54.775Z,1.30
2018-01-15T09:27:23.076Z,1.40
2018-01-15T09:29:51.366Z,1.40
2018-01-15T09:32:19.677Z,1.50
2018-01-15T09:34:47.990Z,1.60
2018-01-15T09:37:16.322Z,1.60
2018-01-15T09:39:44.633Z,1.60
2018-01-15T09:42:12.954Z,1.70
2018-01-15T09:44:42.252Z,1.60
2018-01-15T09:47:11.367Z,1.70
2018-01-15T09:49:39.728Z,1.70
2018-01-15T09:52:08.019Z,1.70
2018-01-15T09:54:37.119Z,1.70
2018-01-15T09:57:05.407Z,1.70
2018-01-15T09:59:33.702Z,1.60
2018-01-15T10:02:02.000Z,1.60
2018-01-15T10:04:30.302Z,1.50
2018-01-15T10:06:59.377Z,1.50
2018-01-15T10:09:27.682Z,1.40
2018-01-15T10:11:55.997Z,1.50
2018-01-15T10:14:25.058Z,1.40
2018-01-15T10:16:53.346Z,1.40
2018-01-15T10:19:21.653Z,1.50
2018-01-15T10:21:49.966Z,1.50
2018-01-15T10:24:18.269Z,1.50
2018-01-15T10:26:47.350Z,1.70
2018-01-15T10:29:15.666Z,1.60
2018-01-15T10:31:44.774Z,1.70
2018-01-15T10:34:13.095Z,1.70
2018-01-15T10:36:41.422Z,1.70
2018-01-15T10:39:09.726Z,1.80
2018-01-15T10:41:38.024Z,1.80
2018-01-15T10:44:06.359Z,1.80
2018-01-15T10:46:34.647Z,1.60
2018-01-15T10:49:03.029Z,1.60
2018-01-15T10:51:31.361Z,1.70
2018-01-15T10:53:59.659Z,1.70
2018-01-15T10:56:27.959Z,1.70
2018-01-15T10:58:56.268Z,1.70
2018-01-15T11:01:27.479Z,1.70
2018-01-15T11:03:55.831Z,1.70
2018-01-15T11:06:24.894Z,1.80
2018-01-15T11:08:53.188Z,1.80
2018-01-15T11:11:21.544Z,1.70
2018-01-15T11:13:49.835Z,1.80
2018-01-15T11:16:18.134Z,1.90
2018-01-15T11:18:46.483Z,1.90
2018-01-15T11:21:15.759Z,1.90
2018-01-15T11:23:44.059Z,1.90
2018-01-15T11:26:12.486Z,1.90
2018-01-15T11:28:40.795Z,1.80
2018-01-15T11:31:09.090Z,1.80
2018-01-15T11:33:37.419Z,1.70
2018-01-15T11:36:05.703Z,1.80
2018-01-15T11:38:34.013Z,1.80
2018-01-15T11:41:02.345Z,1.70
2018-01-15T11:43:30.637Z,1.60
2018-01-15T11:45:58.963Z,1.50
2018-01-15T11:48:27.292Z,1.50
2018-01-15T11:50:56.367Z,1.50
2018-01-15T11:53:24.663Z,1.40
2018-01-15T11:55:52.954Z,1.40
2018-01-15T11:58:21.255Z,1.40
2018-01-15T12:00:49.587Z,1.40
2018-01-15T12:03:17.880Z,1.40
2018-01-15T12:05:46.243Z,1.30
2018-01-15T12:08:14.590Z,1.30
2018-01-15T12:10:42.910Z,1.30
2018-01-15T12:13:11.388Z,1.40
2018-01-15T12:15:39.678Z,1.40
2018-01-15T12:18:08.047Z,1.30
2018-01-15T12:20:36.366Z,1.30
2018-01-15T12:23:04.658Z,1.30
2018-01-15T12:25:32.955Z,1.30
2018-01-15T12:28:01.288Z,1.40
2018-01-15T12:30:29.583Z,1.40
2018-01-15T12:32:57.868Z,1.40
2018-01-15T12:35:26.204Z,1.40
2018-01-15T12:37:55.327Z,1.40
2018-01-15T12:40:23.625Z,1.30
2018-01-15T12:42:52.684Z,1.30
2018-01-15T12:45:20.970Z,1.30
2018-01-15T12:47:49.273Z,1.40
2018-01-15T12:50:17.588Z,1.40
2018-01-15T12:52:45.941Z,1.40
2018-01-15T12:55:14.211Z,1.40
2018-01-15T12:57:42.575Z,1.40
2018-01-15T13:00:11.777Z,1.40
2018-01-15T13:02:40.110Z,1.30
2018-01-15T13:05:08.403Z,1.30
2018-01-15T13:07:48.518Z,1.30
2018-01-15T13:10:16.839Z,1.20
2018-01-15T13:12:45.947Z,1.20
2018-01-15T13:15:14.283Z,1.20
2018-01-15T13:17:42.586Z,1.20
2018-01-15T13:20:11.893Z,1.10
2018-01-15T13:22:40.312Z,1.10
2018-01-15T13:25:08.621Z,1.10
2018-01-15T13:27:38.152Z,1.20
2018-01-15T13:30:06.461Z,1.20
2018-01-15T13:32:34.774Z,1.10
2018-01-15T13:35:03.076Z,1.00
2018-01-15T13:37:31.368Z,1.00
2018-01-15T13:39:59.680Z,1.00
2018-01-15T13:42:28.730Z,0.90
2018-01-15T13:44:57.066Z,0.90
2018-01-15T13:47:25.383Z,0.90
2018-01-15T13:49:54.476Z,0.80
2018-01-15T13:52:23.534Z,0.60
2018-01-15T13:54:51.842Z,0.60
2018-01-15T13:57:20.137Z,0.50
2018-01-15T13:59:48.439Z,0.40
2018-01-15T14:02:16.766Z,0.40
2018-01-15T14:04:45.096Z,0.30
2018-01-15T14:07:13.395Z,0.20
2018-01-15T14:09:41.739Z,0.20
2018-01-15T14:12:10.045Z,0.10
2018-01-15T14:14:40.115Z,0.10
2018-01-15T14:17:08.414Z,0.10
2018-01-15T14:19:36.713Z,0.20
2018-01-15T14:22:05.083Z,0.20
2018-01-15T14:24:33.391Z,0.20
2018-01-15T14:27:01.727Z,0.20
2018-01-15T14:29:30.032Z,0.20
2018-01-15T14:31:58.344Z,0.20
2018-01-15T14:34:26.635Z,0.20
2018-01-15T14:36:54.958Z,0.30
2018-01-15T14:39:24.063Z,0.20
2018-01-15T14:41:53.161Z,0.20
2018-01-15T14:44:21.486Z,0.20
2018-01-15T14:46:49.788Z,0.20
2018-01-15T14:49:18.127Z,0.30
2018-01-15T14:51:46.560Z,0.30
2018-01-15T14:54:14.876Z,0.30
2018-01-15T14:56:43.197Z,0.30
2018-01-15T14:59:11.510Z,0.40
2018-01-15T15:01:40.576Z,0.40
2018-01-15T15:04:09.031Z,0.40
2018-01-15T15:06:37.332Z,0.40
2018-01-15T15:09:05.627Z,0.40
2018-01-15T15:11:33.922Z,0.40
2018-01-15T15:14:02.219Z,0.40
2018-01-15T15:16:30.563Z,0.40
2018-01-15T15:18:59.618Z,0.40
2018-01-15T15:21:27.915Z,0.50
2018-01-15T15:23:56.219Z,0.50
2018-01-15T15:26:24.514Z,0.50
2018-01-15T15:28:52.974Z,0.50
2018-01-15T15:31:21.270Z,0.50
2018-01-15T15:33:49.589Z,0.50
2018-01-15T15:36:18.809Z,0.50
2018-01-15T15:41:44.978Z,0.40
2018-01-15T15:57:04.351Z,0.60
2018-01-15T15:59:32.690Z,0.70
2018-01-15T16:02:01.010Z,0.70
2018-01-15T16:04:30.075Z,0.70
2018-01-15T16:06:58.359Z,0.60
2018-01-15T16:09:26.654Z,0.70
2018-01-15T16:11:54.956Z,0.70
2018-01-15T16:14:23.294Z,0.70
2018-01-15T16:16:52.358Z,0.80
2018-01-15T16:19:21.495Z,0.80
2018-01-15T16:22:02.659Z,0.80
2018-01-15T16:24:30.966Z,0.80
2018-01-15T16:26:59.261Z,0.90
2018-01-15T16:31:48.374Z,1.00
2018-01-15T16:34:17.482Z,1.00
2018-01-15T16:36:46.556Z,1.00
2018-01-15T16:39:14.854Z,1.00
2018-01-15T16:41:44.676Z,1.10
2018-01-15T16:44:12.990Z,1.00
2018-01-15T16:46:41.286Z,1.10
2018-01-15T16:49:10.341Z,1.20
2018-01-15T16:51:38.683Z,1.20
2018-01-15T16:54:06.954Z,1.20
2018-01-15T16:56:35.309Z,1.20
2018-01-15T16:59:04.323Z,1.20
2018-01-15T17:01:32.633Z,1.20
2018-01-15T17:04:00.938Z,1.20
2018-01-15T17:06:29.266Z,1.20
2018-01-15T17:08:58.349Z,1.10
2018-01-15T17:11:26.645Z,1.10
2018-01-15T17:13:55.701Z,1.10
2018-01-15T17:16:24.047Z,1.00
2018-01-15T17:18:52.357Z,1.10
2018-01-15T17:21:20.688Z,1.10
2018-01-15T17:23:48.978Z,1.10
2018-01-15T17:26:17.318Z,1.10
2018-01-15T17:28:46.389Z,1.10
2018-01-15T17:31:16.190Z,1.10
2018-01-15T17:33:44.510Z,1.10
2018-01-15T17:36:12.810Z,1.20
2018-01-15T17:38:41.096Z,1.20
2018-01-15T17:41:10.893Z,1.20
2018-01-15T17:43:39.249Z,1.20
2018-01-15T17:46:08.350Z,1.20
2018-01-15T17:48:37.390Z,1.20
2018-01-15T17:51:05.691Z,1.20
2018-01-15T17:53:33.971Z,1.20
2018-01-15T17:56:02.250Z,1.20
2018-01-15T17:58:30.567Z,1.10
2018-01-15T18:00:58.842Z,1.10
2018-01-15T18:03:27.137Z,1.10
2018-01-15T18:05:55.431Z,1.10
2018-01-15T18:08:23.726Z,1.00
2018-01-15T18:10:52.113Z,1.00
2018-01-15T18:13:20.424Z,1.00
2018-01-15T18:15:48.726Z,1.00
2018-01-15T18:18:17.090Z,1.00
2018-01-15T18:20:45.439Z,0.90
2018-01-15T18:23:13.776Z,0.90
2018-01-15T18:25:42.065Z,0.90
2018-01-15T18:28:10.358Z,0.90
2018-01-15T18:30:38.658Z,0.90
2018-01-15T18:33:08.718Z,0.80
2018-01-15T18:35:37.815Z,0.80
2018-01-15T18:38:06.874Z,0.80
2018-01-15T18:40:35.159Z,0.80
2018-01-15T18:43:03.443Z,0.80
2018-01-15T18:45:31.733Z,0.80
2018-01-15T18:48:00.062Z,0.70
2018-01-15T18:50:28.344Z,0.70
2018-01-15T18:52:56.658Z,0.60
2018-01-15T18:55:24.994Z,0.60
2018-01-15T18:57:53.277Z,0.60
2018-01-15T19:00:21.624Z,0.60
2018-01-15T19:02:49.922Z,0.70
2018-01-15T19:05:18.996Z,0.70
2018-01-15T19:07:47.353Z,0.70
2018-01-15T19:10:15.752Z,0.70
2018-01-15T19:12:44.090Z,0.80
2018-01-15T19:15:13.166Z,0.80
2018-01-15T19:17:41.492Z,0.80
2018-01-15T19:20:09.774Z,0.90
2018-01-15T19:22:38.835Z,0.90
2018-01-15T19:25:07.146Z,0.90
2018-01-15T19:27:35.596Z,0.90
2018-01-15T19:30:04.685Z,1.00
2018-01-15T19:32:33.739Z,1.10
2018-01-15T19:35:04.611Z,1.10
2018-01-15T19:37:53.519Z,1.20
2018-01-15T19:40:21.902Z,1.10
2018-01-15T19:42:51.739Z,1.20
2018-01-15T19:48:30.002Z,1.20
2018-01-15T19:51:04.825Z,1.20
2018-01-15T19:53:38.946Z,1.20
2018-01-15T19:56:13.046Z,1.20
2018-01-15T19:58:46.914Z,1.20
2018-01-15T20:01:22.548Z,1.20
2018-01-15T20:03:56.534Z,1.20
2018-01-15T20:06:31.214Z,1.30
2018-01-15T20:11:58.398Z,1.30
2018-01-15T20:14:26.689Z,1.30
2018-01-15T20:16:54.991Z,1.30
2018-01-15T20:19:23.279Z,1.30
2018-01-15T20:21:51.613Z,1.30
2018-01-15T20:24:19.947Z,1.30
2018-01-15T20:26:48.272Z,1.40
2018-01-15T20:29:18.069Z,1.30
2018-01-15T20:31:46.361Z,1.30
2018-01-15T20:34:15.407Z,1.30
2018-01-15T20:36:45.209Z,1.30
2018-01-15T20:39:13.538Z,1.30
2018-01-15T20:41:42.584Z,1.30
2018-01-15T20:44:10.864Z,1.30
2018-01-15T20:46:39.142Z,1.30
2018-01-15T20:49:07.436Z,1.30
2018-01-15T20:51:35.765Z,1.40
2018-01-15T20:54:04.042Z,1.30
2018-01-15T20:56:32.370Z,1.30
2018-01-15T20:59:02.167Z,1.30
2018-01-15T21:01:30.441Z,1.30
2018-01-15T21:03:58.742Z,1.30
2018-01-15T21:06:27.064Z,1.30
2018-01-15T21:08:55.362Z,1.30
2018-01-15T21:11:24.420Z,1.30
2018-01-15T21:13:52.743Z,1.30
2018-01-15T21:16:22.527Z,1.30
2018-01-15T21:18:50.864Z,1.30
2018-01-15T21:21:19.231Z,1.30
2018-01-15T21:23:47.519Z,1.30
2018-01-15T21:26:15.830Z,1.30
2018-01-15T21:28:45.625Z,1.20
2018-01-15T21:31:13.954Z,1.20
2018-01-15T21:33:43.006Z,1.30
2018-01-15T21:36:11.309Z,1.20
2018-01-15T21:38:39.595Z,1.30
2018-01-15T21:41:07.882Z,1.30
2018-01-15T21:43:36.198Z,1.30
2018-01-15T21:46:04.481Z,1.30
2018-01-15T21:48:32.767Z,1.30
2018-01-15T21:51:01.110Z,1.30
2018-01-15T21:53:30.235Z,1.40
2018-01-15T21:55:58.576Z,1.40
2018-01-15T21:58:26.856Z,1.50
2018-01-15T22:00:55.130Z,1.60
2018-01-15T22:03:23.429Z,1.60
2018-01-15T22:05:51.754Z,1.60
2018-01-15T22:08:21.546Z,1.70
2018-01-15T22:10:50.607Z,1.70
2018-01-15T22:13:19.669Z,1.70
2018-01-15T22:15:47.951Z,1.70
2018-01-15T22:18:16.254Z,1.70
2018-01-15T22:20:44.574Z,1.80
2018-01-15T22:23:13.722Z,1.60
2018-01-15T22:25:42.001Z,1.60
2018-01-15T22:28:10.495Z,1.50
2018-01-15T22:30:39.674Z,1.60
2018-01-15T22:33:08.739Z,1.60
2018-01-15T22:35:37.030Z,1.50
2018-01-15T22:38:05.335Z,1.50
2018-01-15T22:40:33.631Z,1.60
2018-01-15T22:43:01.940Z,1.60
2018-01-15T22:45:31.978Z,1.60
2018-01-15T22:48:00.301Z,1.60
2018-01-15T22:50:29.451Z,1.70
2018-01-15T22:52:57.752Z,1.70
2018-01-15T22:55:26.058Z,1.80
2018-01-15T22:57:55.116Z,1.70
2018-01-15T23:00:23.398Z,1.70
2018-01-15T23:02:51.680Z,1.70
2018-01-15T23:05:19.975Z,1.80
2018-01-15T23:07:48.307Z,1.70
2018-01-15T23:10:16.606Z,1.70
2018-01-15T23:12:46.445Z,1.80
2018-01-15T23:15:15.507Z,1.80
2018-01-15T23:17:43.790Z,1.80
2018-01-15T23:20:12.078Z,1.80
2018-01-15T23:22:40.363Z,1.80
2018-01-15T23:25:08.679Z,1.80
2018-01-15T23:27:36.959Z,1.80
2018-01-15T23:30:05.244Z,1.80
2018-01-15T23:32:33.526Z,1.80
2018-01-15T23:35:01.826Z,1.90
2018-01-15T23:37:30.125Z,2.00
2018-01-15T23:39:58.402Z,2.00
2018-01-15T23:42:26.701Z,2.00
2018-01-15T23:44:54.978Z,2.00
2018-01-15T23:47:23.269Z,2.10
2018-01-15T23:49:51.582Z,2.10
2018-01-15T23:52:19.879Z,2.10
2018-01-15T23:54:49.666Z,2.10
2018-01-15T23:57:17.966Z,2.10
2018-01-15T23:59:46.269Z,2.10
